EST,Max TemperatureF,Mean TemperatureF,Min TemperatureF,Max Dew PointF,MeanDew PointF,Min DewpointF,Max Humidity, Mean Humidity, Min Humidity, Max Sea Level PressureIn, Mean Sea Level PressureIn, Min Sea Level PressureIn, Max VisibilityMiles, Mean VisibilityMiles, Min VisibilityMiles, Max Wind SpeedMPH, Mean Wind SpeedMPH, Max Gust SpeedMPH,PrecipitationIn, CloudCover, Events, WindDirDegrees
2012-11-1,73,64,55,55,50,44,93,69,38,30.02,29.98,29.92,10,10,10,13,7,16,0.00,1,,252
2012-11-2,75,62,50,51,44,37,83,57,28,30.11,30.04,29.99,10,10,10,10,7,,0.00,0,,266
2012-11-3,79,68,59,63,58,53,100,79,48,30.13,30.09,30.05,10,8,0,10,7,,0.00,1,Fog,252
2012-11-4,82,70,59,64,59,55,96,74,41,30.12,30.06,30.00,10,9,2,14,6,18,0.00,0,,236
2012-11-5,71,66,62,64,60,55,100,84,59,30.02,29.98,29.96,10,8,2,14,8,20,0.00,3,,314
2012-11-6,72,64,55,59,56,52,94,79,61,29.99,29.89,29.82,10,10,3,16,5,,0.05,4,Rain,359
2012-11-7,61,54,48,55,46,41,94,76,49,30.01,29.92,29.86,10,10,10,14,9,21,0.00,4,,310
2012-11-8,63,54,45,48,45,40,93,74,45,30.20,30.12,30.01,10,10,10,13,7,17,0.00,0,,330
2012-11-9,66,56,46,48,44,38,93,70,36,30.31,30.25,30.19,10,10,10,10,6,,0.00,0,,321
2012-11-10,71,58,46,60,52,43,90,75,55,30.36,30.31,30.27,10,10,10,13,4,18,0.00,1,,20
2012-11-11,77,68,59,65,61,56,90,75,56,30.36,30.32,30.29,10,10,10,15,7,,0.00,2,,92
2012-11-12,79,72,66,67,65,63,97,84,64,30.29,30.25,30.20,10,9,6,15,7,20,0.05,6,Rain,133
2012-11-13,78,70,62,68,64,60,96,87,58,30.22,30.17,30.13,10,10,9,9,3,,0.00,2,,31
2012-11-14,66,65,63,65,63,62,97,91,87,30.24,30.20,30.17,10,6,2,21,16,28,0.05,8,Rain,6
2012-11-15,64,60,55,64,56,53,100,92,87,30.22,30.16,30.11,10,5,2,15,11,20,0.00,8,,336
2012-11-16,61,57,53,57,53,51,94,86,77,30.23,30.20,30.18,10,8,5,20,12,25,0.00,8,,342
2012-11-17,64,62,60,62,59,56,94,87,82,30.25,30.20,30.16,10,7,3,23,17,30,0.17,8,,5
2012-11-18,62,60,57,57,54,52,90,83,72,30.26,30.21,30.18,10,9,5,20,15,24,0.00,7,,357
2012-11-19,57,56,55,55,53,52,100,90,82,30.20,30.16,30.11,10,9,5,16,12,22,0.00,8,,328
2012-11-20,64,60,55,56,54,52,90,83,65,30.14,30.08,30.04,10,9,6,15,9,,0.00,4,,343
2012-11-21,66,59,52,55,52,48,93,80,54,30.11,30.08,30.04,10,10,10,15,8,21,0.00,1,,334
2012-11-22,62,54,46,48,43,33,90,70,35,30.20,30.16,30.09,10,10,10,20,10,26,0.00,0,,329
2012-11-23,69,56,43,48,43,36,86,66,33,30.23,30.15,30.07,10,10,9,8,4,,0.00,0,,271
2012-11-24,66,57,48,50,41,33,89,60,29,30.12,30.07,30.02,10,10,10,13,7,16,0.00,0,,299
2012-11-25,64,52,39,43,35,28,89,59,25,30.21,30.15,30.11,10,10,10,7,5,,0.00,0,,327
2012-11-26,64,52,39,51,44,37,93,73,37,30.27,30.22,30.18,10,10,10,10,3,,0.00,0,,28
2012-11-27,79,65,51,62,56,48,93,76,47,30.21,30.16,30.09,10,10,10,12,4,,0.00,2,,243
2012-11-28,60,58,55,56,54,51,94,88,81,30.33,30.27,30.16,10,8,5,16,10,24,0.00,6,,352
2012-11-29,66,62,57,58,56,52,97,83,73,30.37,30.32,30.29,10,9,5,16,12,22,0.00,1,,4
2012-11-30,72,64,57,60,58,54,97,83,59,30.33,30.28,30.25,10,10,8,13,6,,0.00,4,,350